createdAt,value
2022-10-22T00:01:10.351Z,12.30
2022-10-22T00:03:38.356Z,13.17
2022-10-22T00:06:06.729Z,10.27
2022-10-22T00:08:34.828Z,9.73
2022-10-22T00:11:09.698Z,11.57
2022-10-22T00:13:37.666Z,9.10
2022-10-22T00:16:05.794Z,13.43
2022-10-22T00:18:35.037Z,16.40
2022-10-22T00:21:03.391Z,15.50
2022-10-22T00:23:31.290Z,12.93
2022-10-22T00:25:59.238Z,13.87
2022-10-22T00:28:27.455Z,12.47
2022-10-22T00:30:58.460Z,14.90
2022-10-22T00:33:26.421Z,14.40
2022-10-22T00:35:56.280Z,14.17
2022-10-22T00:38:24.175Z,16.47
2022-10-22T00:40:52.269Z,12.00
2022-10-22T00:43:21.098Z,12.40
2022-10-22T00:45:51.836Z,11.97
2022-10-22T00:48:23.069Z,14.13
2022-10-22T00:50:55.513Z,15.20
2022-10-22T00:53:30.920Z,16.33
2022-10-22T00:55:59.334Z,10.80
2022-10-22T00:58:30.417Z,15.03
2022-10-22T01:00:58.958Z,11.63
2022-10-22T01:03:27.055Z,11.23
2022-10-22T01:05:58.855Z,9.27
2022-10-22T01:08:36.927Z,11.90
2022-10-22T01:11:16.173Z,9.20
2022-10-22T01:13:52.446Z,10.97
2022-10-22T01:16:25.252Z,13.63
2022-10-22T01:19:02.406Z,9.97
2022-10-22T01:21:35.004Z,12.93
2022-10-22T01:24:22.247Z,10.77
2022-10-22T01:27:04.781Z,12.57
2022-10-22T01:29:38.602Z,13.40
2022-10-22T01:32:10.946Z,15.17
2022-10-22T01:34:41.437Z,10.83
2022-10-22T01:37:10.958Z,12.87
2022-10-22T01:39:41.297Z,13.30
2022-10-22T01:42:09.177Z,12.43
2022-10-22T01:44:38.524Z,14.13
2022-10-22T01:47:17.296Z,13.73
2022-10-22T01:50:05.572Z,16.07
2022-10-22T01:52:56.510Z,18.63
2022-10-22T01:55:30.550Z,14.53
2022-10-22T01:58:10.841Z,15.50
2022-10-22T02:00:45.595Z,16.93
2022-10-22T02:03:22.926Z,15.93
2022-10-22T02:05:55.122Z,17.63
2022-10-22T02:08:25.846Z,17.17
2022-10-22T02:10:54.527Z,13.57
2022-10-22T02:13:26.884Z,19.80
2022-10-22T02:15:58.567Z,17.93
2022-10-22T02:18:33.570Z,18.80
2022-10-22T02:21:03.710Z,13.53
2022-10-22T02:23:31.683Z,13.20
2022-10-22T02:26:04.308Z,18.93
2022-10-22T02:28:31.100Z,15.50
2022-10-22T02:31:07.242Z,13.53
2022-10-22T02:33:40.391Z,13.90
2022-10-22T02:36:09.934Z,10.13
2022-10-22T02:38:39.624Z,13.97
2022-10-22T02:41:07.822Z,11.70
2022-10-22T02:43:43.380Z,13.37
2022-10-22T02:46:12.915Z,11.60
2022-10-22T02:48:40.872Z,12.60
2022-10-22T02:51:09.123Z,15.07
2022-10-22T02:53:37.040Z,12.63
2022-10-22T02:56:05.787Z,8.67
2022-10-22T02:58:33.706Z,9.77
2022-10-22T03:01:02.017Z,9.43
2022-10-22T03:03:31.318Z,6.73
2022-10-22T03:05:59.215Z,6.83
2022-10-22T03:08:27.564Z,10.80
2022-10-22T03:10:55.445Z,5.57
2022-10-22T03:13:25.268Z,3.97
2022-10-22T03:15:53.177Z,4.30
2022-10-22T03:18:21.086Z,8.10
2022-10-22T03:20:50.318Z,4.30
2022-10-22T03:23:20.719Z,4.43
2022-10-22T03:25:50.310Z,9.97
2022-10-22T03:28:19.617Z,5.63
2022-10-22T03:30:47.635Z,4.07
2022-10-22T03:33:15.590Z,3.60
2022-10-22T03:35:47.024Z,9.37
2022-10-22T03:38:17.043Z,4.53
2022-10-22T03:40:47.206Z,6.97
2022-10-22T03:43:15.233Z,6.10
2022-10-22T03:45:43.198Z,4.23
2022-10-22T03:48:11.104Z,6.40
2022-10-22T03:50:38.970Z,5.60
2022-10-22T03:53:07.158Z,5.73
2022-10-22T03:55:38.093Z,6.77
2022-10-22T03:58:06.429Z,5.40
2022-10-22T04:00:36.429Z,4.70
2022-10-22T04:03:04.587Z,6.30
2022-10-22T04:05:33.821Z,7.70
2022-10-22T04:08:02.078Z,4.83
2022-10-22T04:10:29.967Z,4.17
2022-10-22T04:12:59.292Z,7.07
2022-10-22T04:15:28.951Z,4.43
2022-10-22T04:17:56.923Z,6.33
2022-10-22T04:20:24.829Z,6.53
2022-10-22T04:22:52.720Z,5.17
2022-10-22T04:25:20.644Z,5.40
2022-10-22T04:27:48.555Z,6.43
2022-10-22T04:30:18.033Z,5.10
2022-10-22T04:32:45.934Z,5.63
2022-10-22T04:35:13.860Z,5.80
2022-10-22T04:37:42.085Z,4.73
2022-10-22T04:40:11.979Z,5.70
2022-10-22T04:42:40.110Z,5.60
2022-10-22T04:45:08.994Z,6.33
2022-10-22T04:47:38.564Z,5.00
2022-10-22T04:50:08.417Z,7.93
2022-10-22T04:52:36.320Z,5.13
2022-10-22T04:55:04.345Z,6.63
2022-10-22T04:57:32.720Z,7.90
2022-10-22T05:00:00.592Z,6.53
2022-10-22T05:02:28.546Z,6.07
2022-10-22T05:04:57.848Z,8.13
2022-10-22T05:07:25.845Z,5.87
2022-10-22T05:09:54.952Z,8.63
2022-10-22T05:12:23.120Z,9.43
2022-10-22T05:14:51.344Z,8.03
2022-10-22T05:17:19.282Z,7.33
2022-10-22T05:19:47.115Z,5.67
2022-10-22T05:22:16.352Z,5.63
2022-10-22T05:24:44.281Z,5.40
2022-10-22T05:27:12.420Z,6.53
2022-10-22T05:29:40.394Z,4.23
2022-10-22T05:32:08.284Z,2.87
2022-10-22T05:34:37.056Z,5.60
2022-10-22T05:37:05.413Z,5.63
2022-10-22T05:39:36.773Z,4.17
2022-10-22T05:42:05.380Z,4.83
2022-10-22T05:44:33.368Z,8.40
2022-10-22T05:47:01.266Z,4.70
2022-10-22T05:49:29.240Z,6.63
2022-10-22T05:51:57.154Z,5.27
2022-10-22T05:54:25.060Z,4.70
2022-10-22T05:56:55.515Z,9.73
2022-10-22T05:59:23.406Z,6.47
2022-10-22T06:01:51.734Z,7.80
2022-10-22T06:04:19.694Z,12.20
2022-10-22T06:06:49.095Z,10.03
2022-10-22T06:09:20.828Z,7.07
2022-10-22T06:11:49.821Z,6.90
2022-10-22T06:14:20.498Z,7.90
2022-10-22T06:16:48.857Z,7.13
2022-10-22T06:19:19.903Z,9.10
2022-10-22T06:21:48.529Z,6.07
2022-10-22T06:24:16.921Z,11.07
2022-10-22T06:26:44.920Z,10.03
2022-10-22T06:29:12.837Z,4.70
2022-10-22T06:31:42.124Z,5.97
2022-10-22T06:34:12.750Z,6.23
2022-10-22T06:36:42.459Z,4.50
2022-10-22T06:39:13.158Z,10.33
2022-10-22T06:41:41.544Z,10.10
2022-10-22T06:44:14.501Z,5.70
2022-10-22T06:46:44.364Z,6.47
2022-10-22T06:49:14.828Z,7.37
2022-10-22T06:51:42.701Z,4.10
2022-10-22T06:54:10.922Z,6.97
2022-10-22T06:56:38.879Z,4.50
2022-10-22T06:59:06.736Z,5.30
2022-10-22T07:01:36.144Z,4.73
2022-10-22T07:04:09.794Z,5.67
2022-10-22T07:06:37.696Z,3.63
2022-10-22T07:09:05.935Z,4.87
2022-10-22T07:11:40.551Z,3.27
2022-10-22T07:14:08.963Z,3.40
2022-10-22T07:16:37.764Z,6.00
2022-10-22T07:19:07.185Z,3.43
2022-10-22T07:21:36.951Z,2.50
2022-10-22T07:24:05.200Z,5.03
2022-10-22T07:26:33.205Z,7.27
2022-10-22T07:29:01.430Z,6.70
2022-10-22T07:31:29.767Z,3.77
2022-10-22T07:33:58.041Z,3.50
2022-10-22T07:36:27.783Z,9.50
2022-10-22T07:38:57.738Z,5.43
2022-10-22T07:41:26.138Z,3.10
2022-10-22T07:43:54.177Z,6.03
2022-10-22T07:46:22.450Z,6.20
2022-10-22T07:48:50.639Z,4.30
2022-10-22T07:51:18.659Z,4.80
2022-10-22T07:53:47.956Z,3.00
2022-10-22T07:56:15.904Z,5.00
2022-10-22T07:58:44.099Z,3.77
2022-10-22T08:01:12.316Z,4.20
2022-10-22T08:03:40.292Z,7.60
2022-10-22T08:06:08.754Z,4.23
2022-10-22T08:08:36.866Z,5.70
2022-10-22T08:11:06.263Z,2.87
2022-10-22T08:13:34.187Z,5.40
2022-10-22T08:16:03.036Z,6.03
2022-10-22T08:18:31.480Z,5.10
2022-10-22T08:20:59.738Z,2.47
2022-10-22T08:23:28.959Z,2.07
2022-10-22T08:25:58.438Z,3.70
2022-10-22T08:28:30.299Z,3.40
2022-10-22T08:30:58.338Z,1.97
2022-10-22T08:33:26.328Z,6.80
2022-10-22T08:35:54.449Z,7.10
2022-10-22T08:38:22.412Z,6.70
2022-10-22T08:40:52.638Z,3.70
2022-10-22T08:43:57.855Z,4.43
2022-10-22T08:46:34.815Z,3.57
2022-10-22T08:49:05.807Z,2.10
2022-10-22T08:51:36.776Z,4.63
2022-10-22T08:54:16.406Z,2.50
2022-10-22T08:56:46.896Z,4.37
2022-10-22T08:59:21.306Z,6.30
2022-10-22T09:01:52.634Z,2.27
2022-10-22T09:04:26.161Z,1.80
2022-10-22T09:06:55.004Z,5.83
2022-10-22T09:09:25.770Z,3.27
2022-10-22T09:11:55.465Z,2.87
2022-10-22T09:14:26.755Z,2.80
2022-10-22T09:17:13.923Z,3.90
2022-10-22T09:19:54.259Z,4.20
2022-10-22T09:22:30.598Z,3.53
2022-10-22T09:25:00.949Z,3.50
2022-10-22T09:27:30.523Z,3.53
2022-10-22T09:29:59.850Z,4.63
2022-10-22T09:32:28.183Z,3.53
2022-10-22T09:34:59.030Z,2.60
2022-10-22T09:37:28.986Z,5.03
2022-10-22T09:39:58.956Z,2.70
2022-10-22T09:42:26.889Z,2.77
2022-10-22T09:44:56.330Z,4.23
2022-10-22T09:47:43.215Z,4.90
2022-10-22T09:50:26.346Z,8.87
2022-10-22T09:53:01.916Z,3.03
2022-10-22T09:55:30.331Z,2.33
2022-10-22T09:58:00.916Z,2.17
2022-10-22T10:00:30.727Z,2.03
2022-10-22T10:03:01.269Z,4.97
2022-10-22T10:05:32.563Z,2.20
2022-10-22T10:08:03.771Z,5.53
2022-10-22T10:10:46.592Z,4.00
2022-10-22T10:13:41.510Z,2.50
2022-10-22T10:16:16.940Z,3.40
2022-10-22T10:19:00.538Z,4.97
2022-10-22T10:21:36.055Z,3.20
2022-10-22T10:24:16.163Z,3.90
2022-10-22T10:26:50.903Z,2.80
2022-10-22T10:29:33.835Z,3.63
2022-10-22T10:32:13.722Z,3.47
2022-10-22T10:34:49.259Z,4.87
2022-10-22T10:37:23.155Z,2.57
2022-10-22T10:40:22.858Z,3.03
2022-10-22T10:42:56.498Z,2.70
2022-10-22T10:45:30.109Z,5.13
2022-10-22T10:48:22.964Z,2.17
2022-10-22T10:51:04.933Z,3.87
2022-10-22T10:53:48.403Z,3.40
2022-10-22T10:56:29.626Z,2.27
2022-10-22T10:59:08.395Z,2.47
2022-10-22T11:01:48.097Z,8.57
2022-10-22T11:04:39.900Z,3.57
2022-10-22T11:07:30.028Z,7.67
2022-10-22T11:10:05.516Z,2.67
2022-10-22T11:12:38.037Z,3.43
2022-10-22T11:15:17.539Z,3.53
2022-10-22T11:17:49.738Z,4.60
2022-10-22T11:20:23.455Z,4.00
2022-10-22T11:23:18.073Z,6.07
2022-10-22T11:25:47.466Z,3.57
2022-10-22T11:28:20.828Z,4.07
2022-10-22T11:30:54.521Z,3.20
2022-10-22T11:33:27.782Z,3.27
2022-10-22T11:35:58.421Z,3.07
2022-10-22T11:38:30.678Z,3.93
2022-10-22T11:41:03.577Z,5.47
2022-10-22T11:43:35.501Z,8.23
2022-10-22T11:46:25.604Z,3.47
2022-10-22T11:49:03.703Z,4.10
2022-10-22T11:51:37.848Z,6.80
2022-10-22T11:54:31.298Z,4.83
2022-10-22T11:57:18.892Z,5.50
2022-10-22T11:59:51.281Z,5.47
2022-10-22T12:02:30.541Z,3.23
2022-10-22T12:05:20.184Z,3.63
2022-10-22T12:07:57.072Z,6.50
2022-10-22T12:10:29.232Z,6.87
2022-10-22T12:12:59.292Z,3.70
2022-10-22T12:15:28.569Z,5.67
2022-10-22T12:18:01.865Z,5.33
2022-10-22T12:20:30.534Z,4.53
2022-10-22T12:22:59.817Z,6.37
2022-10-22T12:25:35.722Z,4.47
2022-10-22T12:28:04.292Z,3.23
2022-10-22T12:30:34.750Z,2.77
2022-10-22T12:33:05.457Z,4.23
2022-10-22T12:35:35.616Z,4.30
2022-10-22T12:38:06.409Z,5.37
2022-10-22T12:40:37.985Z,4.57
2022-10-22T12:43:16.198Z,4.80
2022-10-22T12:45:47.902Z,6.17
2022-10-22T12:48:19.343Z,3.80
2022-10-22T12:50:51.811Z,6.47
2022-10-22T12:53:24.918Z,4.83
2022-10-22T12:55:56.579Z,6.20
2022-10-22T12:58:34.362Z,3.67
2022-10-22T13:01:02.574Z,2.93
2022-10-22T13:03:34.858Z,3.27
2022-10-22T13:06:23.891Z,4.17
2022-10-22T13:09:07.445Z,7.70
2022-10-22T13:11:42.896Z,5.07
2022-10-22T13:14:23.148Z,4.70
2022-10-22T13:17:14.915Z,3.83
2022-10-22T13:19:51.708Z,5.90
2022-10-22T13:22:34.035Z,6.30
2022-10-22T13:25:19.939Z,6.23
2022-10-22T13:27:51.217Z,5.90
2022-10-22T13:30:23.019Z,6.57
2022-10-22T13:32:52.719Z,4.70
2022-10-22T13:35:24.555Z,2.83
2022-10-22T13:37:52.549Z,4.83
2022-10-22T13:40:20.978Z,4.57
2022-10-22T13:42:50.197Z,6.60
2022-10-22T13:45:18.867Z,4.37
2022-10-22T13:47:50.548Z,6.43
2022-10-22T13:50:20.539Z,6.47
2022-10-22T13:52:52.245Z,7.90
2022-10-22T13:55:23.353Z,5.00
2022-10-22T13:57:53.214Z,8.20
2022-10-22T14:00:23.037Z,3.50
2022-10-22T14:02:54.338Z,4.77
2022-10-22T14:05:22.495Z,5.33
2022-10-22T14:07:50.808Z,5.03
2022-10-22T14:10:21.588Z,5.03
2022-10-22T14:12:52.556Z,5.83
2022-10-22T14:15:24.980Z,7.73
2022-10-22T14:17:57.277Z,7.63
2022-10-22T14:20:28.045Z,10.33
2022-10-22T14:22:56.656Z,8.67
2022-10-22T14:25:26.423Z,5.33
2022-10-22T14:27:54.733Z,5.77
2022-10-22T14:30:27.054Z,4.73
2022-10-22T14:32:54.945Z,4.97
2022-10-22T14:35:23.740Z,6.93
2022-10-22T14:37:52.197Z,6.57
2022-10-22T14:40:21.501Z,8.27
2022-10-22T14:42:50.201Z,3.90
2022-10-22T14:45:20.957Z,6.57
2022-10-22T14:47:50.786Z,9.03
2022-10-22T14:50:19.414Z,9.73
2022-10-22T14:52:47.467Z,9.27
2022-10-22T14:55:17.925Z,6.00
2022-10-22T14:57:46.171Z,5.50
2022-10-22T15:00:16.310Z,8.17
2022-10-22T15:02:44.852Z,5.53
2022-10-22T15:05:15.317Z,8.83
2022-10-22T15:07:43.466Z,6.37
2022-10-22T15:10:12.000Z,8.73
2022-10-22T15:12:39.884Z,6.83
2022-10-22T15:15:08.914Z,5.37
2022-10-22T15:17:36.824Z,7.03
2022-10-22T15:20:05.784Z,7.53
2022-10-22T15:22:36.061Z,10.00
2022-10-22T15:25:06.426Z,10.13
2022-10-22T15:27:34.426Z,6.73
2022-10-22T15:32:35.935Z,6.10
2022-10-22T15:35:05.714Z,6.17
2022-10-22T15:37:37.694Z,7.33
2022-10-22T15:40:07.921Z,6.03
2022-10-22T15:42:35.824Z,5.63
2022-10-22T15:45:03.744Z,8.07
2022-10-22T15:47:31.657Z,4.03
2022-10-22T15:49:59.522Z,5.53
2022-10-22T15:52:27.484Z,11.10
2022-10-22T15:54:56.683Z,6.50
2022-10-22T15:57:24.551Z,5.80
2022-10-22T15:59:52.444Z,8.77
2022-10-22T16:02:20.339Z,6.20
2022-10-22T16:04:48.232Z,6.17
2022-10-22T16:07:17.309Z,4.70
2022-10-22T16:09:46.738Z,7.40
2022-10-22T16:12:17.326Z,6.47
2022-10-22T16:14:45.326Z,6.20
2022-10-22T16:17:13.226Z,5.20
2022-10-22T16:19:41.103Z,6.43
2022-10-22T16:22:11.488Z,4.90
2022-10-22T16:24:40.324Z,4.70
2022-10-22T16:27:08.673Z,6.17
2022-10-22T16:29:40.332Z,7.23
2022-10-22T16:32:09.132Z,5.57
2022-10-22T16:34:37.007Z,9.83
2022-10-22T16:37:10.185Z,5.53
2022-10-22T16:39:38.761Z,4.77
2022-10-22T16:42:07.255Z,6.70
2022-10-22T16:44:35.203Z,7.87
2022-10-22T16:47:04.518Z,6.70
2022-10-22T16:49:32.389Z,6.17
2022-10-22T16:52:00.275Z,6.33
2022-10-22T16:54:28.219Z,12.93
2022-10-22T16:56:56.073Z,10.67
2022-10-22T16:59:24.038Z,7.13
2022-10-22T17:01:51.959Z,6.57
2022-10-22T17:04:22.395Z,6.47
2022-10-22T17:06:50.256Z,5.70
2022-10-22T17:09:18.210Z,8.57
2022-10-22T17:11:46.373Z,9.33
2022-10-22T17:14:14.234Z,17.27
2022-10-22T17:16:42.117Z,12.03
2022-10-22T17:19:28.930Z,12.33
2022-10-22T17:22:14.899Z,10.67
2022-10-22T17:25:37.126Z,9.50
2022-10-22T17:28:05.051Z,12.70
2022-10-22T17:30:32.930Z,7.13
2022-10-22T17:33:01.386Z,8.70
2022-10-22T17:35:29.311Z,7.43
2022-10-22T17:37:58.618Z,5.73
2022-10-22T17:40:27.011Z,10.13
2022-10-22T17:42:54.907Z,8.47
2022-10-22T17:45:23.827Z,14.43
2022-10-22T17:47:51.997Z,8.90
2022-10-22T17:50:20.254Z,10.07
2022-10-22T17:52:48.191Z,8.47
2022-10-22T17:55:17.548Z,9.43
2022-10-22T17:57:45.444Z,11.17
2022-10-22T18:00:16.117Z,10.67
2022-10-22T18:02:44.450Z,13.30
2022-10-22T18:05:13.394Z,10.03
2022-10-22T18:07:41.300Z,11.03
2022-10-22T18:10:10.314Z,12.33
2022-10-22T18:12:39.808Z,9.17
2022-10-22T18:15:08.710Z,12.93
2022-10-22T18:17:39.676Z,16.73
2022-10-22T18:20:09.240Z,16.00
2022-10-22T18:22:37.188Z,9.23
2022-10-22T18:25:05.675Z,12.23
2022-10-22T18:27:34.564Z,16.83
2022-10-22T18:30:03.959Z,12.93
2022-10-22T18:32:34.335Z,11.23
2022-10-22T18:35:02.225Z,21.70
2022-10-22T18:37:30.604Z,19.20
2022-10-22T18:39:58.568Z,13.17
2022-10-22T18:42:29.140Z,12.87
2022-10-22T18:45:00.731Z,12.27
2022-10-22T18:47:29.965Z,11.90
2022-10-22T18:49:57.994Z,14.03
2022-10-22T18:52:25.955Z,12.87
2022-10-22T18:54:54.315Z,13.97
2022-10-22T18:57:23.568Z,16.47
2022-10-22T18:59:53.604Z,18.20
2022-10-22T19:02:24.830Z,33.23
2022-10-22T19:05:00.679Z,44.13
2022-10-22T19:07:31.700Z,47.57
2022-10-22T19:10:02.812Z,42.90
2022-10-22T19:12:32.797Z,36.07
2022-10-22T19:15:03.223Z,27.13
2022-10-22T19:17:31.429Z,18.17
2022-10-22T19:20:04.342Z,14.07
2022-10-22T19:22:33.028Z,12.60
2022-10-22T19:25:09.630Z,18.67
2022-10-22T19:27:42.368Z,25.00
2022-10-22T19:30:11.992Z,23.27
2022-10-22T19:32:40.620Z,17.00
2022-10-22T19:35:10.696Z,13.90
2022-10-22T19:37:38.683Z,14.37
2022-10-22T19:40:09.123Z,13.73
2022-10-22T19:42:38.249Z,15.70
2022-10-22T19:45:19.135Z,11.50
2022-10-22T19:47:47.066Z,20.07
2022-10-22T19:50:17.294Z,31.37
2022-10-22T19:52:45.201Z,22.13
2022-10-22T19:55:13.135Z,16.97
2022-10-22T19:57:41.310Z,27.97
2022-10-22T20:00:10.608Z,17.80
2022-10-22T20:02:39.604Z,17.47
2022-10-22T20:05:08.451Z,23.87
2022-10-22T20:07:37.646Z,24.27
2022-10-22T20:10:06.857Z,12.83
2022-10-22T20:12:39.972Z,21.30
2022-10-22T20:15:09.335Z,20.47
2022-10-22T20:17:39.497Z,15.57
2022-10-22T20:20:08.118Z,13.67
2022-10-22T20:22:37.461Z,14.20
2022-10-22T20:25:06.534Z,16.33
2022-10-22T20:27:34.412Z,8.67
2022-10-22T20:30:02.663Z,11.33
2022-10-22T20:32:30.610Z,14.60
2022-10-22T20:34:58.471Z,9.50
2022-10-22T20:37:26.339Z,8.90
2022-10-22T20:39:55.612Z,11.43
2022-10-22T20:42:23.487Z,11.93
2022-10-22T20:44:51.536Z,13.77
2022-10-22T20:47:19.524Z,13.13
2022-10-22T20:49:48.992Z,12.73
2022-10-22T20:52:16.907Z,12.43
2022-10-22T20:54:46.131Z,14.97
2022-10-22T20:57:15.509Z,13.20
2022-10-22T20:59:46.161Z,8.97
2022-10-22T21:02:14.019Z,7.63
2022-10-22T21:04:44.112Z,12.90
2022-10-22T21:07:14.217Z,8.93
2022-10-22T21:09:42.125Z,18.20
2022-10-22T21:12:09.994Z,19.33
2022-10-22T21:14:39.224Z,25.07
2022-10-22T21:17:08.097Z,28.93
2022-10-22T21:19:36.075Z,21.00
2022-10-22T21:22:04.352Z,15.33
2022-10-22T21:24:32.636Z,11.53
2022-10-22T21:27:00.564Z,11.10
2022-10-22T21:29:28.584Z,14.90
2022-10-22T21:31:58.079Z,13.23
2022-10-22T21:34:26.219Z,11.40
2022-10-22T21:36:54.107Z,10.90
2022-10-22T21:39:22.003Z,12.00
2022-10-22T21:41:49.905Z,17.83
2022-10-22T21:44:17.716Z,15.33
2022-10-22T21:46:45.628Z,18.83
2022-10-22T21:49:14.868Z,19.60
2022-10-22T21:51:44.234Z,24.90
2022-10-22T21:54:13.538Z,16.13
2022-10-22T21:56:42.367Z,13.27
2022-10-22T21:59:10.255Z,10.33
2022-10-22T22:01:38.144Z,11.37
2022-10-22T22:04:07.375Z,16.60
2022-10-22T22:06:36.685Z,12.40
2022-10-22T22:09:08.702Z,12.70
2022-10-22T22:11:36.715Z,11.30
2022-10-22T22:14:04.596Z,8.30
2022-10-22T22:16:34.310Z,11.73
2022-10-22T22:21:40.126Z,17.23
2022-10-22T22:24:09.088Z,13.47
2022-10-22T22:26:37.623Z,10.90
2022-10-22T22:29:05.530Z,11.80
2022-10-22T22:31:35.436Z,9.73
2022-10-22T22:34:05.230Z,14.43
2022-10-22T22:36:35.775Z,10.47
2022-10-22T22:39:05.944Z,9.33
2022-10-22T22:41:34.257Z,11.57
2022-10-22T22:44:02.584Z,9.93
2022-10-22T22:46:30.580Z,11.63
2022-10-22T22:48:58.417Z,10.53
2022-10-22T22:51:26.433Z,9.93
2022-10-22T22:53:54.346Z,16.40
2022-10-22T22:56:25.087Z,36.43
2022-10-22T22:58:53.351Z,17.10
2022-10-22T23:01:23.598Z,9.63
2022-10-22T23:03:55.099Z,11.90
2022-10-22T23:06:23.032Z,10.47
2022-10-22T23:08:52.438Z,8.93
2022-10-22T23:11:21.109Z,10.83
2022-10-22T23:13:54.385Z,9.47
2022-10-22T23:16:24.537Z,7.40
2022-10-22T23:18:54.362Z,11.60
2022-10-22T23:21:25.449Z,13.23
2022-10-22T23:23:55.533Z,11.43
2022-10-22T23:26:26.187Z,10.13
2022-10-22T23:28:55.970Z,11.50
2022-10-22T23:31:23.989Z,8.23
2022-10-22T23:33:51.931Z,10.83
2022-10-22T23:36:19.800Z,9.67
2022-10-22T23:38:47.686Z,10.27
2022-10-22T23:41:15.568Z,10.00
2022-10-22T23:43:43.454Z,7.90
2022-10-22T23:46:14.600Z,6.40
2022-10-22T23:48:42.622Z,9.00
2022-10-22T23:51:12.652Z,8.90
2022-10-22T23:53:41.602Z,7.10
2022-10-22T23:56:11.857Z,5.87
2022-10-22T23:58:40.367Z,6.63
